Hemlock, New York
Current Conditions -  °F | °C
As of 9:54 AM on Wednesday 26 Nov 2014 (Local Time) from KDSV Reporting Station
Overcast Overcast  
Wind Chill: -1°   Ceiling: 3800
Heat Index:   Visibility: 10mi
Dew Point: -4°   Wind: 5mph
Humidity: 70%   Direction: 330°NNW
Pressure: 30.14"   Gusts: NA
Location:  42.79°N, 77.61°W
Report Text: KDSV 261454Z AUTO 33004KT 10SM BKN038 OVC120 01/M04 A3014 RMK AO2 SLP222 T00111039 58009
Loading
Personal Weather Stations






























Interactive Weather Map New forecast layout! Learn more

10-Day Weather Forecast

Advertisements
Track Severe Weather on mobile